Time;durP1;ratioP1;P1;durP2;ratioP2;P2;SDS_P1;SDS_P2;PMS_P1;PMS_P2;Temp;Humidity;BMP_temperature;BMP_pressure;BME280_temperature;BME280_humidity;BME280_pressure;Samples;Min_cycle;Max_cycle;Signal;HPM_P1;HPM_P2
2022/07/13 00:01:15;;;;;;;2.15;0.90;;;;;;;16.17;56.75;100977.20;1746921;80;21068;-79
2022/07/13 00:03:42;;;;;;;2.05;1.07;;;;;;;16.18;56.86;100980.70;1746857;80;21538;-78
2022/07/13 00:06:09;;;;;;;3.75;1.10;;;;;;;16.15;56.85;100973.78;1746951;82;21116;-79
2022/07/13 00:08:36;;;;;;;3.02;1.17;;;;;;;16.16;56.93;100975.51;1746937;80;21435;-79
2022/07/13 00:11:03;;;;;;;2.85;1.07;;;;;;;16.17;56.94;100973.71;1747005;82;21012;-79
2022/07/13 00:13:30;;;;;;;6.22;1.20;;;;;;;16.18;57.05;100974.94;1746901;82;21033;-79
2022/07/13 00:15:57;;;;;;;0.90;0.72;;;;;;;16.11;57.07;100973.56;1746913;80;21096;-79
2022/07/13 00:18:24;;;;;;;3.12;0.90;;;;;;;16.09;57.21;100967.95;1746976;81;21115;-79
2022/07/13 00:20:51;;;;;;;2.45;1.00;;;;;;;16.05;57.27;100965.47;1746918;82;21041;-79
2022/07/13 00:23:19;;;;;;;2.75;1.00;;;;;;;16.04;57.43;100961.57;1747137;82;21427;-79
2022/07/13 00:25:46;;;;;;;1.32;1.00;;;;;;;15.99;57.66;100965.79;1746903;82;20990;-79
2022/07/13 00:28:13;;;;;;;2.70;1.10;;;;;;;15.91;57.92;100965.79;1747147;82;21425;-79
2022/07/13 00:30:40;;;;;;;1.95;0.98;;;;;;;15.87;58.24;100969.03;1747041;80;21128;-78
2022/07/13 00:33:08;;;;;;;1.90;1.07;;;;;;;15.89;58.32;100961.05;1747244;80;21072;-79
2022/07/13 00:35:35;;;;;;;1.30;1.00;;;;;;;15.94;58.64;100961.20;1735338;80;21068;-79
2022/07/13 00:38:02;;;;;;;1.87;0.98;;;;;;;15.93;58.73;100963.91;1738464;80;21475;-79
2022/07/13 00:40:29;;;;;;;2.37;1.17;;;;;;;15.91;58.56;100967.97;1747205;82;21009;-79
2022/07/13 00:42:57;;;;;;;3.98;1.17;;;;;;;15.97;58.56;100960.19;1747421;80;21115;-79
2022/07/13 00:45:24;;;;;;;2.55;1.22;;;;;;;16.00;58.96;100960.03;1746910;80;21010;-79
2022/07/13 00:47:53;;;;;;;3.95;1.10;;;;;;;16.05;59.12;100962.83;1747250;80;21049;-79
2022/07/13 00:50:21;;;;;;;1.82;1.00;;;;;;;16.06;58.99;100959.71;1746993;80;20972;-79
2022/07/13 00:52:49;;;;;;;3.10;1.22;;;;;;;16.05;59.02;100956.69;1747404;80;21006;-79
2022/07/13 00:55:17;;;;;;;5.65;1.17;;;;;;;16.03;59.11;100953.27;1717902;82;21360;-79
2022/07/13 00:57:44;;;;;;;1.90;1.00;;;;;;;16.09;59.35;100944.16;1747316;82;20982;-79
2022/07/13 01:00:14;;;;;;;4.80;1.07;;;;;;;16.08;59.38;100941.98;1746926;80;21029;-79
2022/07/13 01:02:46;;;;;;;2.15;0.85;;;;;;;16.01;59.20;100948.03;1747056;81;21033;-79
2022/07/13 01:05:14;;;;;;;4.22;1.00;;;;;;;15.96;59.43;100938.19;1747102;82;21025;-79
2022/07/13 01:07:43;;;;;;;3.02;1.17;;;;;;;15.88;59.66;100938.16;1747390;82;21194;-79
2022/07/13 01:10:11;;;;;;;2.17;1.20;;;;;;;15.85;59.91;100944.45;1746932;80;21009;-79
2022/07/13 01:12:40;;;;;;;2.37;1.12;;;;;;;15.82;59.87;100941.53;1747291;80;21006;-79
2022/07/13 01:15:08;;;;;;;3.42;1.10;;;;;;;15.86;60.14;100936.94;1747029;80;21610;-79
2022/07/13 01:17:37;;;;;;;4.40;1.37;;;;;;;15.83;60.00;100937.09;1747206;82;21053;-79
2022/07/13 01:20:07;;;;;;;3.12;1.05;;;;;;;15.86;60.16;100940.05;1746953;80;21132;-79
2022/07/13 01:22:47;;;;;;;3.55;1.15;;;;;;;15.87;60.30;100940.43;1722168;80;21001;-79
2022/07/13 01:25:15;;;;;;;1.82;1.10;;;;;;;15.86;60.32;100942.22;1722650;82;21543;-79
2022/07/13 01:27:43;;;;;;;3.52;1.10;;;;;;;15.88;60.45;100944.77;1738777;82;21014;-79
2022/07/13 01:30:11;;;;;;;4.97;1.35;;;;;;;15.91;60.75;100944.64;1726906;82;21366;-79
2022/07/13 01:32:51;;;;;;;1.98;1.12;;;;;;;15.94;60.68;100945.34;1746888;80;21195;-78
2022/07/13 01:35:22;;;;;;;2.27;1.57;;;;;;;15.99;60.83;100945.08;1747108;82;20986;-78
2022/07/13 01:37:51;;;;;;;5.28;1.12;;;;;;;16.05;60.84;100944.31;1738105;80;21017;-79
2022/07/13 01:40:18;;;;;;;3.72;1.05;;;;;;;16.08;60.90;100936.70;1736086;82;21010;-79
2022/07/13 01:42:49;;;;;;;1.77;1.40;;;;;;;16.12;61.00;100936.06;1747379;80;21048;-78
2022/07/13 01:45:22;;;;;;;2.75;1.10;;;;;;;16.10;60.92;100932.20;1747041;80;21073;-79
2022/07/13 01:47:54;;;;;;;1.45;1.00;;;;;;;16.08;61.12;100935.84;1747151;82;21057;-78
2022/07/13 01:50:23;;;;;;;2.92;1.40;;;;;;;16.03;61.05;100934.28;1747466;80;21044;-79
2022/07/13 01:52:52;;;;;;;2.15;1.20;;;;;;;16.02;61.22;100927.77;1747067;80;21053;-79
2022/07/13 01:55:20;;;;;;;3.33;1.05;;;;;;;15.97;61.13;100926.67;1732916;82;21033;-79
2022/07/13 01:57:47;;;;;;;1.85;1.17;;;;;;;15.99;61.14;100922.61;1741416;82;21153;-79
2022/07/13 02:00:18;;;;;;;2.02;1.20;;;;;;;16.00;61.49;100923.02;1747028;82;21010;-79
2022/07/13 02:02:48;;;;;;;1.60;1.10;;;;;;;15.98;61.49;100923.55;1747104;80;21005;-78
2022/07/13 02:05:20;;;;;;;2.47;1.12;;;;;;;15.99;61.51;100917.31;1746886;80;21448;-79
2022/07/13 02:07:47;;;;;;;1.70;1.05;;;;;;;16.04;61.62;100920.11;1747384;82;21523;-79
2022/07/13 02:10:14;;;;;;;1.57;1.00;;;;;;;16.04;61.42;100914.83;1747168;80;21291;-79
2022/07/13 02:12:42;;;;;;;1.92;1.17;;;;;;;16.03;61.52;100910.48;1747386;80;21013;-79
2022/07/13 02:15:11;;;;;;;3.22;1.10;;;;;;;16.06;61.69;100918.73;1746979;80;21439;-79
2022/07/13 02:17:40;;;;;;;2.98;1.02;;;;;;;16.02;61.67;100906.61;1746635;82;21062;-79
2022/07/13 02:20:10;;;;;;;1.82;1.20;;;;;;;15.99;61.72;100906.74;1746962;82;21053;-79
2022/07/13 02:22:44;;;;;;;1.02;0.88;;;;;;;16.03;62.04;100905.67;1747584;80;21111;-79
2022/07/13 02:25:13;;;;;;;1.40;0.78;;;;;;;16.05;61.91;100902.02;1747049;82;21024;-79
2022/07/13 02:27:44;;;;;;;1.50;0.90;;;;;;;16.08;61.89;100904.97;1747325;80;21010;-79
2022/07/13 02:30:14;;;;;;;1.40;0.90;;;;;;;16.17;62.18;100906.27;1726471;80;21119;-79
2022/07/13 02:32:44;;;;;;;1.45;0.90;;;;;;;16.17;62.18;100906.27;1747374;82;21518;-79
2022/07/13 02:35:12;;;;;;;;;;;;;;;16.19;62.06;100909.70;1749986;80;21130;-78
2022/07/13 02:37:40;;;;;;;2.27;0.93;;;;;;;16.22;62.38;100906.89;1746980;80;20502;-79
2022/07/13 02:40:09;;;;;;;2.15;0.98;;;;;;;16.27;62.13;100905.71;1747367;82;21035;-78
2022/07/13 02:42:36;;;;;;;1.75;1.00;;;;;;;16.32;62.13;100908.09;1747195;80;21472;-79
2022/07/13 02:45:06;;;;;;;1.07;0.80;;;;;;;16.35;62.02;100913.25;1719059;82;21104;-78
2022/07/13 02:47:32;;;;;;;1.55;0.85;;;;;;;16.37;62.08;100899.45;1746678;80;21936;-78
2022/07/13 02:50:01;;;;;;;1.98;1.00;;;;;;;16.38;62.05;100898.53;1747161;82;21037;-79
2022/07/13 02:52:28;;;;;;;1.60;0.80;;;;;;;16.39;61.75;100905.52;1747013;80;21049;-78
2022/07/13 02:54:54;;;;;;;3.00;1.00;;;;;;;16.37;61.90;100899.45;1747280;80;21049;-78
2022/07/13 02:57:21;;;;;;;1.60;0.93;;;;;;;16.37;61.76;100906.06;1746953;82;21032;-78
2022/07/13 02:59:50;;;;;;;1.62;0.98;;;;;;;16.38;61.79;100904.27;1746765;82;21117;-78
2022/07/13 03:02:18;;;;;;;1.15;0.90;;;;;;;16.38;62.04;100906.91;1751054;80;21045;-78
2022/07/13 03:04:46;;;;;;;2.58;1.20;;;;;;;16.37;61.89;100914.00;1763547;80;21021;-78
2022/07/13 03:07:13;;;;;;;2.02;1.20;;;;;;;16.35;61.79;100909.28;1763682;80;21033;-78
2022/07/13 03:09:40;;;;;;;1.82;1.15;;;;;;;16.35;61.86;100913.25;1763626;80;21055;-78
2022/07/13 03:12:08;;;;;;;3.05;1.25;;;;;;;16.35;61.87;100911.93;1763480;80;22392;-78
2022/07/13 03:14:35;;;;;;;2.20;1.07;;;;;;;16.36;62.05;100908.81;1763520;80;21083;-78
2022/07/13 03:17:03;;;;;;;2.98;0.90;;;;;;;16.36;62.15;100902.20;1763724;81;21055;-79
2022/07/13 03:19:30;;;;;;;2.75;1.00;;;;;;;16.39;62.09;100899.38;1763954;80;21036;-79
2022/07/13 03:21:58;;;;;;;1.47;0.90;;;;;;;16.42;62.28;100896.09;1751859;80;21032;-79
2022/07/13 03:24:25;;;;;;;1.17;0.60;;;;;;;16.48;62.24;100902.38;1755088;79;21095;-79
2022/07/13 03:26:52;;;;;;;2.83;0.95;;;;;;;16.51;62.31;100899.56;1763614;81;21009;-78
2022/07/13 03:29:19;;;;;;;2.05;0.80;;;;;;;16.55;62.41;100892.81;1745071;81;21823;-78
2022/07/13 03:31:45;;;;;;;1.20;0.85;;;;;;;16.58;62.19;100887.34;1747784;81;20985;-79
2022/07/13 03:34:13;;;;;;;2.55;1.00;;;;;;;16.62;62.19;100879.61;1755999;81;21039;-78
2022/07/13 03:36:41;;;;;;;1.50;0.78;;;;;;;16.65;62.19;100886.91;1755606;81;21319;-78
2022/07/13 03:39:08;;;;;;;1.80;0.78;;;;;;;16.73;62.46;100886.02;1755856;81;21029;-79
2022/07/13 03:41:34;;;;;;;1.45;0.78;;;;;;;16.78;62.29;100884.95;1755559;81;21049;-78
2022/07/13 03:44:04;;;;;;;1.37;0.90;;;;;;;16.82;62.19;100891.78;1755502;81;21287;-79
2022/07/13 03:46:32;;;;;;;2.20;0.90;;;;;;;16.86;62.15;100894.66;1755947;81;21075;-79
2022/07/13 03:48:59;;;;;;;2.05;1.20;;;;;;;16.89;62.31;100894.01;1755553;81;21123;-78
2022/07/13 03:51:26;;;;;;;2.20;0.85;;;;;;;16.93;62.31;100893.36;1755820;81;20982;-79
2022/07/13 03:53:53;;;;;;;2.98;1.00;;;;;;;16.93;62.25;100890.71;1755635;81;21478;-79
2022/07/13 03:56:20;;;;;;;1.07;0.90;;;;;;;16.94;61.85;100897.26;1755958;81;21056;-79
2022/07/13 03:58:48;;;;;;;2.77;0.90;;;;;;;16.94;61.85;100897.26;1755593;81;21037;-79
2022/07/13 04:01:16;;;;;;;2.58;0.80;;;;;;;16.96;62.12;100902.48;1755850;81;21159;-79
2022/07/13 04:03:44;;;;;;;1.03;0.70;;;;;;;16.96;61.94;100899.84;1721895;82;21006;-79
2022/07/13 04:06:11;;;;;;;1.12;0.80;;;;;;;16.97;61.98;100900.21;1721342;82;21727;-79
2022/07/13 04:08:38;;;;;;;4.25;1.10;;;;;;;17.05;61.83;100907.73;1746709;82;21021;-79
2022/07/13 04:11:06;;;;;;;3.95;1.07;;;;;;;17.05;61.83;100907.73;1747028;82;21002;-79
2022/07/13 04:13:33;;;;;;;1.37;0.90;;;;;;;17.09;61.83;100905.28;1746813;82;21055;-79
2022/07/13 04:16:00;;;;;;;2.45;0.85;;;;;;;17.12;61.81;100902.46;1746986;82;21534;-79
2022/07/13 04:18:29;;;;;;;5.97;0.98;;;;;;;17.15;61.84;100905.81;1735739;82;21025;-79
2022/07/13 04:20:57;;;;;;;1.15;0.98;;;;;;;17.20;61.77;100908.18;1737429;82;21542;-79
2022/07/13 04:23:25;;;;;;;1.85;1.22;;;;;;;17.24;61.87;100900.45;1747106;82;21061;-79
2022/07/13 04:25:54;;;;;;;1.00;0.90;;;;;;;17.30;61.91;100904.55;1746722;82;21115;-79
2022/07/13 04:28:21;;;;;;;2.47;0.70;;;;;;;17.33;61.80;100899.92;1746076;82;21036;-79
2022/07/13 04:30:50;;;;;;;2.52;0.70;;;;;;;17.36;61.69;100905.52;1727207;82;21026;-79
2022/07/13 04:33:17;;;;;;;0.95;0.72;;;;;;;17.39;61.74;100907.99;1747024;82;21065;-79
2022/07/13 04:35:45;;;;;;;3.20;0.80;;;;;;;17.48;62.05;100898.17;1746743;82;21249;-79
2022/07/13 04:38:13;;;;;;;1.35;0.70;;;;;;;17.48;62.05;100898.17;1747027;82;21292;-79
2022/07/13 04:40:41;;;;;;;1.47;0.88;;;;;;;17.53;61.97;100901.41;1746586;82;21104;-79
2022/07/13 04:43:09;;;;;;;1.62;0.90;;;;;;;17.58;61.84;100902.01;1746685;82;21011;-79
2022/07/13 04:45:36;;;;;;;5.83;0.90;;;;;;;17.63;61.94;100897.77;1746683;82;21001;-79
2022/07/13 04:48:04;;;;;;;3.67;1.00;;;;;;;17.68;61.94;100896.16;1747110;82;21021;-79
2022/07/13 04:50:32;;;;;;;1.17;0.85;;;;;;;17.73;62.10;100894.94;1746881;82;22056;-79
2022/07/13 04:53:00;;;;;;;2.10;1.00;;;;;;;17.78;62.07;100888.93;1746866;82;20990;-79
2022/07/13 04:55:28;;;;;;;1.32;0.90;;;;;;;17.84;61.96;100898.32;1746797;82;21021;-79
2022/07/13 04:57:56;;;;;;;1.20;0.80;;;;;;;17.89;62.14;100898.91;1747109;82;21550;-79
2022/07/13 05:00:24;;;;;;;2.00;0.90;;;;;;;17.94;61.97;100897.31;1746769;82;21033;-79
2022/07/13 05:02:51;;;;;;;1.02;0.80;;;;;;;17.99;62.04;100899.22;1748765;80;21510;-79
2022/07/13 05:05:18;;;;;;;0.82;0.70;;;;;;;18.02;61.98;100898.55;1755601;81;20986;-79
2022/07/13 05:07:45;;;;;;;1.10;0.80;;;;;;;18.09;62.04;100900.83;1755449;81;21029;-79
2022/07/13 05:10:13;;;;;;;1.77;1.00;;;;;;;18.12;61.95;100905.47;1755704;81;21064;-79
2022/07/13 05:12:42;;;;;;;1.23;0.87;;;;;;;18.16;61.92;100900.86;1755838;81;21005;-79
2022/07/13 05:15:10;;;;;;;1.02;0.80;;;;;;;18.21;61.97;100902.76;1755814;81;21062;-79
2022/07/13 05:17:39;;;;;;;1.47;0.90;;;;;;;18.26;62.04;100900.20;1755503;81;20997;-79
2022/07/13 05:20:08;;;;;;;1.12;0.90;;;;;;;18.33;61.92;100898.02;1755967;81;21487;-79
2022/07/13 05:22:37;;;;;;;1.32;0.80;;;;;;;18.38;61.85;100908.36;1755725;81;21024;-79
2022/07/13 05:25:05;;;;;;;2.05;0.80;;;;;;;18.43;61.74;100904.47;1755862;81;20981;-78
2022/07/13 05:27:32;;;;;;;1.00;0.80;;;;;;;18.46;61.76;100902.95;1742516;81;22073;-80
2022/07/13 05:30:01;;;;;;;2.42;1.00;;;;;;;18.53;61.67;100903.89;1726591;81;21524;-80
2022/07/13 05:32:28;;;;;;;1.22;0.90;;;;;;;18.57;61.69;100902.73;1743106;81;21065;-80
2022/07/13 05:35:00;;;;;;;2.52;0.90;;;;;;;18.62;61.63;100900.65;1728785;81;21064;-88
2022/07/13 05:37:28;;;;;;;1.85;0.78;;;;;;;18.65;61.52;100905.77;1749384;81;21032;-82
2022/07/13 05:39:55;;;;;;;1.45;0.80;;;;;;;18.67;61.34;100896.75;1737437;81;21147;-78
2022/07/13 05:42:22;;;;;;;1.10;1.00;;;;;;;18.68;61.27;100897.63;1732541;81;21040;-77
2022/07/13 05:44:50;;;;;;;1.00;0.90;;;;;;;18.66;61.04;100900.38;1737631;81;21123;-77
2022/07/13 05:47:17;;;;;;;1.75;0.93;;;;;;;18.65;61.01;100901.34;1728869;81;21045;-78
2022/07/13 05:49:44;;;;;;;1.22;0.98;;;;;;;18.60;60.83;100903.42;1739668;81;21064;-77
2022/07/13 05:52:12;;;;;;;2.62;1.10;;;;;;;18.56;60.77;100903.70;1733756;81;21072;-77
2022/07/13 05:54:39;;;;;;;2.75;1.10;;;;;;;18.50;60.78;100908.44;1741556;81;21064;-77
2022/07/13 05:57:06;;;;;;;3.42;1.20;;;;;;;18.46;60.79;100912.72;1736162;81;21656;-75
2022/07/13 05:59:33;;;;;;;1.52;1.10;;;;;;;18.42;60.83;100915.17;1737177;81;21052;-76
2022/07/13 06:02:01;;;;;;;2.35;0.95;;;;;;;18.39;60.84;100918.02;1733688;81;21022;-77
2022/07/13 06:04:28;;;;;;;2.20;1.25;;;;;;;18.39;60.94;100911.37;1733052;81;21124;-78
2022/07/13 06:07:05;;;;;;;3.37;1.17;;;;;;;18.44;61.04;100916.78;1736005;81;21100;-77
2022/07/13 06:09:32;;;;;;;1.30;1.20;;;;;;;18.53;61.07;100912.70;1741394;81;21063;-77
2022/07/13 06:12:00;;;;;;;3.92;1.17;;;;;;;18.66;61.29;100912.80;1735331;81;21618;-78
2022/07/13 06:14:27;;;;;;;1.27;1.17;;;;;;;18.81;61.21;100905.21;1743362;81;21041;-78
2022/07/13 06:16:54;;;;;;;2.02;1.17;;;;;;;18.98;61.20;100911.25;1728281;81;21152;-76
2022/07/13 06:19:21;;;;;;;1.72;1.22;;;;;;;19.13;61.10;100900.50;1740700;81;20946;-77
2022/07/13 06:21:48;;;;;;;1.42;1.27;;;;;;;19.30;61.07;100906.05;1730669;81;21112;-77
2022/07/13 06:24:15;;;;;;;4.05;1.85;;;;;;;19.44;60.84;100905.13;1743061;81;21501;-77
2022/07/13 06:26:42;;;;;;;2.40;1.30;;;;;;;19.55;60.72;100910.59;1723738;81;22138;-77
2022/07/13 06:29:09;;;;;;;1.57;1.35;;;;;;;19.64;60.39;100903.80;1733847;81;21953;-77
2022/07/13 06:31:36;;;;;;;6.60;1.52;;;;;;;19.68;60.12;100912.00;1733678;81;21064;-91
2022/07/13 06:34:03;;;;;;;2.72;1.47;;;;;;;19.68;59.95;100912.48;1739011;81;21052;-82
2022/07/13 06:36:30;;;;;;;2.67;1.20;;;;;;;19.69;59.83;100907.52;1738273;81;21819;-84
2022/07/13 06:38:57;;;;;;;2.85;1.87;;;;;;;19.69;59.93;100908.85;1749995;81;21821;-84
2022/07/13 06:41:24;;;;;;;2.67;1.30;;;;;;;19.73;59.89;100906.34;1743777;81;21076;-78
2022/07/13 06:43:51;;;;;;;2.95;1.50;;;;;;;19.75;59.89;100914.60;1737260;81;21036;-78
2022/07/13 06:46:18;;;;;;;4.35;1.67;;;;;;;19.82;60.03;100922.55;1728275;81;21101;-78
2022/07/13 06:48:45;;;;;;;1.30;1.12;;;;;;;19.92;60.06;100908.63;1731662;81;21053;-77
2022/07/13 06:51:12;;;;;;;1.60;1.30;;;;;;;20.06;60.28;100912.52;1737565;81;21566;-79
2022/07/13 06:53:39;;;;;;;2.60;1.52;;;;;;;20.22;60.27;100913.16;1735123;81;21122;-78
2022/07/13 06:56:06;;;;;;;5.95;1.67;;;;;;;20.39;60.20;100912.47;1741564;81;21485;-75
2022/07/13 06:58:33;;;;;;;3.42;1.55;;;;;;;20.54;60.01;100914.10;1744139;81;21478;-78
2022/07/13 07:01:00;;;;;;;1.52;1.20;;;;;;;20.70;59.74;100910.72;1733534;81;21067;-80
2022/07/13 07:03:27;;;;;;;2.52;1.40;;;;;;;20.85;59.71;100910.58;1733145;81;21104;-79
2022/07/13 07:05:55;;;;;;;3.30;1.55;;;;;;;21.00;59.49;100904.61;1752126;81;22461;-78
2022/07/13 07:08:22;;;;;;;3.08;1.30;;;;;;;21.08;59.04;100904.42;1723783;81;21115;-78
2022/07/13 07:10:50;;;;;;;2.50;1.55;;;;;;;21.17;58.95;100889.56;1739078;81;21072;-79
2022/07/13 07:13:18;;;;;;;5.37;2.20;;;;;;;21.29;59.10;100896.67;1737074;81;21569;-78
2022/07/13 07:15:45;;;;;;;4.87;2.08;;;;;;;21.42;58.71;100893.11;1734176;81;21063;-77
2022/07/13 07:18:15;;;;;;;2.72;1.80;;;;;;;21.52;58.48;100892.31;1726117;81;21094;-79
2022/07/13 07:20:42;;;;;;;2.72;1.42;;;;;;;21.61;58.40;100892.94;1735426;81;21058;-77
2022/07/13 07:23:09;;;;;;;1.85;1.45;;;;;;;21.70;58.17;100893.20;1726097;81;21513;-78
2022/07/13 07:25:36;;;;;;;4.42;1.82;;;;;;;21.77;57.87;100894.45;1748620;81;21032;-78
2022/07/13 07:28:04;;;;;;;3.05;1.62;;;;;;;21.83;57.74;100897.49;1727664;81;21056;-78
2022/07/13 07:30:34;;;;;;;2.05;1.40;;;;;;;21.88;57.56;100901.16;1740302;81;22067;-77
2022/07/13 07:33:02;;;;;;;1.40;1.30;;;;;;;21.94;57.41;100900.67;1742323;81;21521;-76
2022/07/13 07:35:30;;;;;;;2.50;2.25;;;;;;;22.01;57.13;100891.24;1730353;81;21056;-79
2022/07/13 07:37:57;;;;;;;4.03;2.45;;;;;;;22.08;56.84;100897.44;1741613;81;21599;-78
2022/07/13 07:40:24;;;;;;;2.55;1.60;;;;;;;22.15;56.81;100892.84;1723236;81;21115;-78
2022/07/13 07:42:53;;;;;;;6.47;2.75;;;;;;;22.22;56.49;100887.89;1734142;81;21364;-78
2022/07/13 07:45:20;;;;;;;3.95;2.20;;;;;;;22.31;56.48;100887.66;1722818;81;21063;-78
2022/07/13 07:47:47;;;;;;;3.00;2.58;;;;;;;22.39;56.53;100890.11;1735334;81;21075;-80
2022/07/13 07:50:14;;;;;;;2.92;1.30;;;;;;;22.44;56.25;100880.38;1750666;81;21069;-79
2022/07/13 07:52:41;;;;;;;2.98;1.25;;;;;;;22.46;55.73;100878.44;1755891;81;21013;-79
2022/07/13 07:55:09;;;;;;;1.15;0.90;;;;;;;22.48;55.54;100876.02;1754881;81;21182;-79
2022/07/13 07:57:50;;;;;;;2.00;0.90;;;;;;;22.51;55.34;100874.08;1735587;81;21449;-79
2022/07/13 08:00:17;;;;;;;2.15;0.90;;;;;;;22.49;54.97;100877.70;1755406;81;21631;-79
2022/07/13 08:02:44;;;;;;;0.90;0.80;;;;;;;22.49;54.61;100875.03;1755767;81;20978;-79
2022/07/13 08:05:12;;;;;;;3.33;1.50;;;;;;;22.53;54.65;100863.64;1746137;81;21035;-79
2022/07/13 08:07:43;;;;;;;3.87;1.10;;;;;;;22.62;54.54;100868.73;1734028;81;21276;-79
2022/07/13 08:10:12;;;;;;;1.98;1.07;;;;;;;22.75;54.57;100864.56;1755518;81;21013;-79
2022/07/13 08:12:40;;;;;;;1.95;1.10;;;;;;;22.88;54.31;100875.47;1755637;81;21052;-79
2022/07/13 08:15:08;;;;;;;5.15;1.17;;;;;;;23.00;53.75;100881.70;1756000;81;21036;-78
2022/07/13 08:17:39;;;;;;;2.67;1.10;;;;;;;23.12;53.49;100878.50;1755569;81;21573;-79
2022/07/13 08:20:08;;;;;;;1.70;1.20;;;;;;;23.20;53.44;100877.37;1755741;81;21084;-79
2022/07/13 08:22:37;;;;;;;1.72;0.90;;;;;;;23.26;53.03;100880.03;1755266;81;21481;-79
2022/07/13 08:25:05;;;;;;;1.27;0.90;;;;;;;23.32;53.05;100873.67;1756023;81;21001;-79
2022/07/13 08:27:34;;;;;;;1.05;0.82;;;;;;;23.43;52.73;100871.94;1755521;81;21547;-80
2022/07/13 08:30:01;;;;;;;4.30;1.10;;;;;;;23.54;52.15;100866.04;1734649;81;21068;-79
2022/07/13 08:32:28;;;;;;;1.98;1.20;;;;;;;23.64;51.62;100875.48;1755627;81;21954;-78
2022/07/13 08:40:25;;;;;;;1.10;1.00;;;;;;;23.95;50.71;100876.92;1752755;81;21115;-79
2022/07/13 08:42:52;;;;;;;2.22;0.90;;;;;;;24.00;50.38;100867.52;1737773;81;22108;-78
2022/07/13 08:45:20;;;;;;;2.47;0.72;;;;;;;24.01;49.90;100863.84;1755815;81;21301;-78
2022/07/13 08:47:48;;;;;;;0.85;0.85;;;;;;;24.06;49.61;100866.14;1755537;81;21313;-79
2022/07/13 08:50:16;;;;;;;1.15;0.78;;;;;;;24.13;49.44;100860.58;1755889;81;21010;-78
2022/07/13 08:52:43;;;;;;;2.60;0.80;;;;;;;24.20;49.06;100859.08;1755609;81;21056;-79
2022/07/13 08:55:10;;;;;;;3.58;0.88;;;;;;;24.30;48.92;100868.48;1755935;81;21060;-78
2022/07/13 08:57:39;;;;;;;4.12;0.85;;;;;;;24.40;48.14;100865.36;1755670;81;21303;-79
2022/07/13 09:00:11;;;;;;;1.70;0.80;;;;;;;24.50;47.84;100868.13;1755770;81;21020;-79
2022/07/13 09:02:39;;;;;;;0.93;0.82;;;;;;;24.60;47.81;100866.81;1755916;81;21143;-79
2022/07/13 09:05:08;;;;;;;1.22;0.82;;;;;;;24.66;47.82;100864.91;1749085;81;21538;-78
2022/07/13 09:07:36;;;;;;;1.92;0.78;;;;;;;24.70;47.46;100860.99;1751618;81;21044;-79
2022/07/13 09:10:05;;;;;;;2.37;1.00;;;;;;;24.71;47.56;100859.50;1747189;81;21129;-79
2022/07/13 09:12:32;;;;;;;4.72;1.10;;;;;;;24.74;47.52;100853.02;1755721;81;20982;-77
2022/07/13 09:15:06;;;;;;;2.50;0.80;;;;;;;24.76;47.69;100859.59;1755919;81;21025;-79
2022/07/13 09:17:38;;;;;;;2.33;0.93;;;;;;;24.75;47.21;100857.41;1755742;81;21096;-79
2022/07/13 09:20:15;;;;;;;2.33;1.00;;;;;;;24.74;47.17;100860.22;1755880;81;21044;-79
2022/07/13 09:22:55;;;;;;;1.12;1.00;;;;;;;24.66;47.22;100857.72;1755776;81;21221;-79
2022/07/13 09:25:37;;;;;;;1.45;1.07;;;;;;;24.63;47.28;100861.17;1756126;81;21009;-78
2022/07/13 09:28:07;;;;;;;4.10;1.30;;;;;;;24.67;47.30;100858.09;1754061;81;21053;-79
2022/07/13 09:30:39;;;;;;;2.33;1.05;;;;;;;24.74;47.01;100855.70;1734031;81;21028;-79
2022/07/13 09:33:06;;;;;;;3.85;1.67;;;;;;;24.74;46.89;100853.02;1734878;81;21017;-79
2022/07/13 09:35:49;;;;;;;4.42;3.15;;;;;;;24.74;46.62;100851.67;1735686;81;21284;-78
2022/07/13 09:38:39;;;;;;;3.83;1.70;;;;;;;24.78;46.41;100856.30;1725957;81;21271;-78
2022/07/13 09:41:24;;;;;;;3.33;1.05;;;;;;;24.81;45.91;100846.13;1728833;81;27732;-78
2022/07/13 09:47:05;;;;;;;2.40;0.98;;;;;;;25.23;46.02;100832.51;1726331;81;21191;-76
2022/07/13 09:49:41;;;;;;;1.95;1.30;;;;;;;25.57;45.56;100835.58;1725794;81;21152;-78
2022/07/13 09:52:12;;;;;;;1.45;1.20;;;;;;;25.86;45.34;100833.89;1725394;81;21451;-78
2022/07/13 09:54:42;;;;;;;3.62;1.10;;;;;;;26.08;44.92;100836.22;1725718;81;21037;-79
2022/07/13 09:57:14;;;;;;;3.37;1.05;;;;;;;26.25;44.60;100832.75;1725723;81;21041;-78
2022/07/13 09:59:44;;;;;;;2.67;1.05;;;;;;;26.40;44.04;100822.84;1725484;81;21052;-79
2022/07/13 10:02:14;;;;;;;1.85;1.10;;;;;;;26.43;43.49;100822.55;1725751;81;21102;-78
2022/07/13 10:04:41;;;;;;;5.42;2.83;;;;;;;26.43;43.15;100829.27;1738831;81;21505;-79
2022/07/13 10:07:10;;;;;;;5.10;3.20;;;;;;;26.40;42.45;100823.69;1716216;82;21091;-78
2022/07/13 10:09:40;;;;;;;3.40;1.72;;;;;;;26.41;42.12;100823.18;1700380;81;21059;-79
2022/07/13 10:12:09;;;;;;;3.08;0.80;;;;;;;26.48;41.88;100817.56;1727632;83;21069;-77
2022/07/13 10:14:37;;;;;;;1.12;1.02;;;;;;;26.62;41.49;100821.62;1723275;80;21512;-77
2022/07/13 10:17:14;;;;;;;2.10;0.80;;;;;;;26.87;40.78;100818.20;1717883;80;21045;-78
2022/07/13 10:19:59;;;;;;;1.35;0.50;;;;;;;26.87;40.78;100818.20;1717400;82;21534;-78
2022/07/13 10:22:29;;;;;;;3.10;0.70;;;;;;;27.06;40.16;100812.34;1717223;80;21002;-77
2022/07/13 10:24:59;;;;;;;0.95;0.55;;;;;;;27.29;39.88;100805.49;1717515;80;21037;-77
2022/07/13 10:27:32;;;;;;;1.65;0.88;;;;;;;27.58;39.90;100801.70;1717542;80;21189;-78
2022/07/13 10:30:12;;;;;;;0.72;0.62;;;;;;;27.78;39.29;100795.08;1717569;80;21105;-77
2022/07/13 10:32:42;;;;;;;0.68;0.50;;;;;;;28.05;38.74;100797.30;1740322;80;21450;-77
2022/07/13 10:35:13;;;;;;;0.68;0.50;;;;;;;28.31;38.28;100795.04;1747181;80;21061;-77
2022/07/13 10:38:06;;;;;;;1.52;0.40;;;;;;;28.40;37.84;100797.59;1747044;82;21058;-77
2022/07/13 10:40:36;;;;;;;1.47;0.50;;;;;;;28.42;37.40;100779.44;1747290;80;21181;-77
2022/07/13 10:43:09;;;;;;;0.72;0.30;;;;;;;28.53;37.25;100773.41;1746980;80;22183;-77
2022/07/13 10:45:43;;;;;;;6.62;0.88;;;;;;;28.64;37.09;100773.09;1747121;80;21464;-77
2022/07/13 10:48:26;;;;;;;1.22;0.50;;;;;;;28.72;37.02;100770.92;1746935;80;21061;-77
2022/07/13 10:50:57;;;;;;;1.75;0.47;;;;;;;28.92;36.97;100769.59;1747054;80;21579;-77
2022/07/13 10:53:46;;;;;;;0.82;0.50;;;;;;;29.29;36.88;100772.31;1746953;80;21559;-78
2022/07/13 10:56:18;;;;;;;;;;;;;;;29.62;36.59;100772.28;1749771;82;21022;-77
2022/07/13 10:58:49;;;;;;;2.37;0.50;;;;;;;29.99;35.70;100779.31;1746922;82;20462;-77
2022/07/13 11:01:43;;;;;;;3.12;0.72;;;;;;;30.14;35.60;100779.41;1746462;80;21058;-78
2022/07/13 11:04:10;;;;;;;1.42;0.60;;;;;;;30.12;35.53;100773.84;1746525;80;21089;-77
2022/07/13 11:06:38;;;;;;;1.30;0.60;;;;;;;29.97;35.29;100774.58;1746870;81;21093;-77
2022/07/13 11:09:20;;;;;;;2.90;0.62;;;;;;;29.96;35.21;100773.42;1747022;82;21053;-77
2022/07/13 11:11:54;;;;;;;1.70;0.80;;;;;;;30.15;35.27;100764.89;1747181;82;21090;-76
2022/07/13 11:14:42;;;;;;;3.77;1.30;;;;;;;30.22;35.13;100766.41;1746944;80;21573;-80
2022/07/13 11:17:21;;;;;;;0.82;0.80;;;;;;;30.16;35.06;100761.67;1746991;82;21029;-79
2022/07/13 11:19:58;;;;;;;1.37;0.65;;;;;;;30.25;34.90;100760.64;1747152;80;22165;-81
2022/07/13 11:25:13;;;;;;;2.42;0.60;;;;;;;29.97;34.34;100766.47;1746904;82;21041;-87
2022/07/13 11:25:28;;;;;;;0.45;0.30;;;;;;;29.70;34.35;100764.19;1721917;82;21112;-76
2022/07/13 11:28:31;;;;;;;3.55;1.30;;;;;;;29.73;34.48;100755.73;1757582;81;21026;-77
2022/07/13 11:31:00;;;;;;;1.17;0.57;;;;;;;29.81;34.26;100754.36;1741447;82;21567;-77
2022/07/13 11:33:28;;;;;;;2.33;0.70;;;;;;;29.87;34.31;100746.91;1714565;82;22047;-76
2022/07/13 11:35:57;;;;;;;1.45;0.60;;;;;;;29.81;34.19;100752.17;1741196;82;21018;-77
2022/07/13 11:38:24;;;;;;;;;;;;;;;29.73;33.80;100743.58;1743679;82;21018;-75
2022/07/13 11:40:51;;;;;;;0.68;0.60;;;;;;;29.58;33.30;100747.48;1752565;81;20205;-76
2022/07/13 11:43:18;;;;;;;3.77;0.60;;;;;;;29.38;33.40;100742.09;1736452;81;21090;-77
2022/07/13 11:45:45;;;;;;;1.55;0.50;;;;;;;29.40;33.72;100733.33;1722829;80;21180;-77